Time;durP1;ratioP1;P1;durP2;ratioP2;P2;SDS_P1;SDS_P2;PMS_P1;PMS_P2;Temp;Humidity;BMP_temperature;BMP_pressure;BME280_temperature;BME280_humidity;BME280_pressure;Samples;Min_cycle;Max_cycle;Signal;HPM_P1;HPM_P2
2021/08/27 00:01:50;;;;;;;25.15;8.45;;;;;;;10.46;85.60;98250.36;2152018;83;20993;-66
2021/08/27 00:04:51;;;;;;;24.12;9.48;;;;;;;10.52;85.32;98246.84;2152039;83;21444;-65
2021/08/27 00:07:51;;;;;;;20.97;7.62;;;;;;;10.62;85.15;98243.59;2151898;82;21023;-66
2021/08/27 00:10:52;;;;;;;21.70;7.80;;;;;;;10.60;83.55;98252.85;2151866;83;21024;-66
2021/08/27 00:13:52;;;;;;;26.07;9.23;;;;;;;10.60;83.99;98262.52;2150587;82;21036;-65
2021/08/27 00:16:53;;;;;;;24.77;9.13;;;;;;;10.67;83.92;98265.91;2149215;83;21037;-66
2021/08/27 00:19:53;;;;;;;26.02;9.15;;;;;;;10.67;84.53;98261.97;2149450;83;20965;-65
2021/08/27 00:22:54;;;;;;;24.37;9.25;;;;;;;10.58;84.84;98254.28;2149435;83;21519;-66
2021/08/27 00:25:54;;;;;;;23.50;8.70;;;;;;;10.53;85.17;98244.60;2149278;82;21489;-66
2021/08/27 00:28:55;;;;;;;25.30;9.15;;;;;;;10.51;84.68;98241.72;2149264;82;21021;-65
2021/08/27 00:31:56;;;;;;;26.05;8.00;;;;;;;10.47;84.75;98238.45;2149544;83;21033;-66
2021/08/27 00:34:56;;;;;;;22.00;9.25;;;;;;;10.36;83.75;98240.53;2149312;82;20977;-66
2021/08/27 00:37:57;;;;;;;26.68;10.40;;;;;;;10.31;84.41;98230.79;2149405;82;21053;-65
2021/08/27 00:40:57;;;;;;;24.80;9.63;;;;;;;10.33;84.62;98231.54;2149428;82;21456;-65
2021/08/27 00:43:58;;;;;;;25.90;10.03;;;;;;;10.37;84.46;98225.63;2148906;83;21010;-66
2021/08/27 00:46:58;;;;;;;26.55;9.43;;;;;;;10.33;84.58;98224.13;2149090;82;21026;-66
2021/08/27 00:49:59;;;;;;;22.58;8.63;;;;;;;10.26;84.52;98223.73;2149414;82;20977;-65
2021/08/27 00:52:59;;;;;;;25.05;9.00;;;;;;;10.19;83.81;98225.93;2149397;82;21061;-66
2021/08/27 00:55:59;;;;;;;30.00;10.63;;;;;;;10.15;84.08;98236.73;2149274;82;20973;-65
2021/08/27 00:59:00;;;;;;;27.55;9.88;;;;;;;10.11;84.43;98241.81;2149414;82;21508;-66
2021/08/27 01:02:00;;;;;;;38.65;11.25;;;;;;;10.07;84.18;98235.97;2149302;82;20982;-65
2021/08/27 01:05:02;;;;;;;28.00;7.80;;;;;;;10.03;84.63;98238.42;2149499;82;21537;-67
2021/08/27 01:08:02;;;;;;;24.52;6.45;;;;;;;10.00;84.53;98242.08;2149261;82;21302;-65
2021/08/27 01:11:03;;;;;;;21.60;6.15;;;;;;;9.98;84.56;98245.26;2149291;82;21049;-65
2021/08/27 01:14:04;;;;;;;19.98;6.45;;;;;;;9.88;84.73;98238.97;2159361;82;21017;-65
2021/08/27 01:17:04;;;;;;;22.90;5.45;;;;;;;9.82;84.20;98234.98;2169500;82;21032;-65
2021/08/27 01:20:06;;;;;;;24.23;8.20;;;;;;;9.80;84.49;98239.98;2169426;82;21503;-65
2021/08/27 01:23:07;;;;;;;25.12;7.62;;;;;;;9.80;84.57;98244.73;2169634;82;21012;-65
2021/08/27 01:26:07;;;;;;;23.00;7.72;;;;;;;9.73;84.19;98243.47;2169413;82;20976;-65
2021/08/27 01:29:08;;;;;;;24.47;8.23;;;;;;;9.67;84.54;98246.02;2169542;82;21511;-65
2021/08/27 01:32:08;;;;;;;24.50;9.18;;;;;;;9.73;84.93;98248.70;2169372;82;21040;-65
2021/08/27 01:35:09;;;;;;;22.85;8.00;;;;;;;9.79;84.92;98252.22;2169393;82;21052;-65
2021/08/27 01:38:09;;;;;;;22.13;7.58;;;;;;;9.75;85.19;98250.74;2169372;82;20997;-66
2021/08/27 01:41:10;;;;;;;20.23;5.85;;;;;;;9.70;85.12;98246.30;2169703;81;20997;-65
2021/08/27 01:44:10;;;;;;;22.05;7.03;;;;;;;9.63;84.27;98245.03;2169165;82;21061;-65
2021/08/27 01:47:11;;;;;;;25.48;6.80;;;;;;;9.52;84.58;98257.50;2169473;82;21037;-66
2021/08/27 01:50:12;;;;;;;20.05;6.55;;;;;;;9.50;84.82;98259.39;2169415;81;21476;-65
2021/08/27 01:53:12;;;;;;;18.27;5.95;;;;;;;9.52;84.61;98258.81;2169371;82;21063;-65
2021/08/27 01:56:14;;;;;;;22.05;7.30;;;;;;;9.54;84.38;98255.64;2169335;82;21061;-65
2021/08/27 01:59:15;;;;;;;19.80;6.75;;;;;;;9.51;84.43;98255.81;2169382;82;20965;-65
2021/08/27 02:02:16;;;;;;;22.25;6.95;;;;;;;9.44;84.03;98247.55;2169366;82;21494;-65
2021/08/27 02:05:18;;;;;;;21.50;7.90;;;;;;;9.43;84.31;98248.48;2169778;82;20968;-68
2021/08/27 02:08:19;;;;;;;22.98;8.05;;;;;;;9.47;85.22;98240.80;2169258;82;21005;-65
2021/08/27 02:11:21;;;;;;;33.75;13.68;;;;;;;9.44;84.83;98238.84;2169471;82;20969;-65
2021/08/27 02:14:22;;;;;;;25.00;9.10;;;;;;;9.39;84.71;98231.77;2169170;82;20997;-65
2021/08/27 02:17:24;;;;;;;27.62;9.40;;;;;;;9.35;85.22;98229.36;2169150;82;21037;-66
2021/08/27 02:20:26;;;;;;;23.67;8.60;;;;;;;9.35;85.22;98229.36;2169526;82;20989;-66
2021/08/27 02:23:27;;;;;;;25.30;9.07;;;;;;;9.28;84.86;98230.70;2169630;82;20973;-65
2021/08/27 02:26:29;;;;;;;25.60;8.70;;;;;;;9.35;85.17;98234.59;2169633;82;21506;-68
2021/08/27 02:29:30;;;;;;;21.42;7.58;;;;;;;9.41;85.24;98238.59;2169357;82;20985;-65
2021/08/27 02:32:32;;;;;;;22.77;8.28;;;;;;;9.45;84.87;98241.37;2169331;82;21003;-65
2021/08/27 02:35:33;;;;;;;24.67;8.45;;;;;;;9.43;84.27;98238.01;2169266;82;21052;-66
2021/08/27 02:38:35;;;;;;;23.05;8.18;;;;;;;9.42;84.65;98236.80;2169610;82;20945;-65
2021/08/27 02:41:38;;;;;;;21.77;7.87;;;;;;;9.48;84.57;98231.16;2169136;82;21040;-65
2021/08/27 02:44:39;;;;;;;20.37;6.78;;;;;;;9.53;84.83;98231.70;2169335;82;21495;-65
2021/08/27 02:47:42;;;;;;;26.85;8.38;;;;;;;9.47;84.13;98235.56;2169434;82;21012;-65
2021/08/27 02:50:43;;;;;;;21.65;7.10;;;;;;;9.42;84.02;98243.34;2169452;82;21546;-65
2021/08/27 02:53:45;;;;;;;21.00;7.22;;;;;;;9.38;84.12;98250.58;2169801;82;20981;-68
2021/08/27 02:56:47;;;;;;;22.93;6.83;;;;;;;9.34;83.95;98248.61;2169645;82;20984;-65
2021/08/27 02:59:48;;;;;;;21.15;6.78;;;;;;;9.32;83.75;98261.42;2169791;82;20969;-65
2021/08/27 03:02:50;;;;;;;20.82;6.50;;;;;;;9.29;84.05;98266.86;2169445;82;21594;-65
2021/08/27 03:05:52;;;;;;;22.45;7.20;;;;;;;9.27;83.77;98270.89;2169790;82;20945;-65
2021/08/27 03:08:53;;;;;;;21.80;7.60;;;;;;;9.28;83.73;98275.64;2170077;81;21546;-65
2021/08/27 03:11:55;;;;;;;23.98;8.15;;;;;;;9.26;83.61;98280.14;2169786;81;20985;-65
2021/08/27 03:14:56;;;;;;;26.12;7.62;;;;;;;9.21;83.80;98283.52;2157108;82;21065;-65
2021/08/27 03:17:58;;;;;;;24.23;8.28;;;;;;;9.22;84.16;98283.89;2149714;82;20985;-65
2021/08/27 03:20:59;;;;;;;21.17;7.10;;;;;;;9.26;84.75;98280.97;2149646;82;20981;-65
2021/08/27 03:24:01;;;;;;;20.68;7.28;;;;;;;9.34;84.85;98283.95;2149788;82;20942;-65
2021/08/27 03:27:02;;;;;;;21.25;7.62;;;;;;;9.45;84.70;98287.64;2149353;83;20942;-65
2021/08/27 03:30:03;;;;;;;21.45;7.10;;;;;;;9.56;84.83;98294.33;2149137;83;21547;-65
2021/08/27 03:33:05;;;;;;;21.05;6.78;;;;;;;9.69;84.83;98289.13;2149341;82;21013;-66
2021/08/27 03:36:06;;;;;;;20.02;6.37;;;;;;;9.77;84.24;98287.30;2149342;82;21504;-65
2021/08/27 03:39:08;;;;;;;18.82;6.40;;;;;;;9.77;84.38;98290.78;2149491;82;20972;-66
2021/08/27 03:42:10;;;;;;;21.95;6.85;;;;;;;9.79;83.42;98296.74;2149147;83;21045;-65
2021/08/27 03:45:11;;;;;;;22.00;6.90;;;;;;;9.70;83.33;98289.51;2149599;82;20970;-65
2021/08/27 03:48:12;;;;;;;20.90;6.60;;;;;;;9.57;83.00;98293.40;2149328;82;20986;-66
2021/08/27 03:51:14;;;;;;;22.20;7.03;;;;;;;9.41;83.47;98291.39;2149309;82;21495;-65
2021/08/27 03:54:15;;;;;;;20.15;6.95;;;;;;;9.36;83.73;98296.93;2149349;83;20986;-66
2021/08/27 03:57:17;;;;;;;19.23;6.37;;;;;;;9.33;84.04;98300.58;2149438;82;21477;-65
2021/08/27 04:00:18;;;;;;;21.83;7.10;;;;;;;9.39;83.99;98305.06;2149590;82;20978;-66
2021/08/27 04:03:20;;;;;;;21.30;7.13;;;;;;;9.46;84.10;98310.27;2149704;82;21495;-65
2021/08/27 04:06:21;;;;;;;23.98;8.33;;;;;;;9.56;84.37;98313.14;2149705;82;21050;-67
2021/08/27 04:09:23;;;;;;;22.85;7.45;;;;;;;9.53;84.30;98307.14;2149341;83;20962;-65
2021/08/27 04:12:24;;;;;;;23.80;7.80;;;;;;;9.49;84.48;98310.89;2149674;82;21066;-65
2021/08/27 04:15:26;;;;;;;23.32;8.88;;;;;;;9.47;84.39;98306.24;2163292;82;21005;-66
2021/08/27 04:18:27;;;;;;;28.00;9.93;;;;;;;9.58;84.53;98316.48;2169701;82;20977;-65
2021/08/27 04:21:28;;;;;;;25.62;9.78;;;;;;;9.67;84.44;98321.97;2169456;82;21011;-65
2021/08/27 04:24:30;;;;;;;24.20;8.50;;;;;;;9.77;84.42;98320.90;2169477;82;21510;-65
2021/08/27 04:27:31;;;;;;;22.35;7.83;;;;;;;9.88;84.21;98322.34;2169162;81;21048;-65
2021/08/27 04:30:33;;;;;;;23.15;7.47;;;;;;;9.96;84.07;98330.99;2169478;82;21048;-65
2021/08/27 04:33:34;;;;;;;23.20;7.30;;;;;;;10.03;84.07;98328.33;2169804;82;21003;-65
2021/08/27 04:36:36;;;;;;;22.13;7.35;;;;;;;10.19;84.16;98324.69;2169406;82;20993;-65
2021/08/27 04:39:37;;;;;;;22.25;6.85;;;;;;;10.45;84.16;98332.13;2169559;82;20969;-65
2021/08/27 04:42:40;;;;;;;19.65;7.05;;;;;;;10.62;83.73;98330.14;2169373;82;21025;-65
2021/08/27 04:45:41;;;;;;;21.82;6.97;;;;;;;10.71;83.38;98326.38;2169685;82;20985;-65
2021/08/27 04:48:43;;;;;;;20.60;7.22;;;;;;;10.72;83.25;98330.69;2169435;81;21028;-65
2021/08/27 04:51:44;;;;;;;24.52;7.60;;;;;;;10.64;82.98;98328.23;2169539;82;20969;-65
2021/08/27 04:54:45;;;;;;;21.70;6.90;;;;;;;10.58;83.17;98336.05;2169163;82;21020;-65
2021/08/27 04:57:47;;;;;;;22.05;6.72;;;;;;;10.63;83.39;98337.05;2169356;82;21512;-65
2021/08/27 05:00:48;;;;;;;21.57;6.33;;;;;;;10.69;83.39;98341.41;2169471;82;20980;-65
2021/08/27 05:03:50;;;;;;;20.45;5.80;;;;;;;10.72;83.42;98338.56;2169407;82;21495;-65
2021/08/27 05:06:51;;;;;;;24.15;6.67;;;;;;;10.78;83.53;98343.03;2169540;81;20933;-65
2021/08/27 05:09:52;;;;;;;23.05;6.75;;;;;;;10.89;83.82;98344.44;2169462;82;20988;-65
2021/08/27 05:12:54;;;;;;;22.30;6.55;;;;;;;11.03;83.77;98342.99;2169483;82;21045;-65
2021/08/27 05:15:55;;;;;;;21.90;6.30;;;;;;;11.15;83.72;98345.67;2169326;81;21005;-65
2021/08/27 05:18:57;;;;;;;23.02;6.47;;;;;;;11.29;83.94;98346.01;2169392;82;21479;-65
2021/08/27 05:21:58;;;;;;;18.47;6.30;;;;;;;11.49;83.73;98346.72;2169530;82;21048;-65
2021/08/27 05:25:00;;;;;;;22.60;7.03;;;;;;;11.68;83.80;98346.69;2169806;82;21518;-68
2021/08/27 05:28:01;;;;;;;20.52;6.72;;;;;;;11.91;83.80;98351.11;2169494;82;20925;-66
2021/08/27 05:31:02;;;;;;;22.40;6.50;;;;;;;12.09;83.23;98353.34;2169415;81;20981;-65
2021/08/27 05:34:06;;;;;;;23.00;6.78;;;;;;;12.22;83.41;98350.64;2169634;82;20980;-65
2021/08/27 05:37:07;;;;;;;20.75;6.15;;;;;;;12.36;83.26;98356.18;2150550;82;20978;-66
2021/08/27 05:40:09;;;;;;;19.80;6.00;;;;;;;12.53;83.09;98354.41;2169629;82;21005;-66
2021/08/27 05:43:11;;;;;;;18.33;5.77;;;;;;;12.58;82.35;98352.25;2169566;82;21580;-65
2021/08/27 05:46:12;;;;;;;21.75;6.05;;;;;;;12.59;82.41;98353.93;2170001;82;21229;-65
2021/08/27 05:49:14;;;;;;;21.73;6.97;;;;;;;12.61;82.21;98354.67;2169692;82;21028;-65
2021/08/27 05:52:15;;;;;;;23.85;7.97;;;;;;;12.65;82.23;98352.13;2169720;82;21499;-65
2021/08/27 05:55:17;;;;;;;21.40;6.67;;;;;;;12.61;81.86;98352.03;2169456;82;20976;-66
2021/08/27 05:58:18;;;;;;;20.68;6.53;;;;;;;12.63;82.09;98351.92;2169747;82;21432;-65
2021/08/27 06:01:19;;;;;;;21.33;6.05;;;;;;;12.59;82.51;98349.98;2169996;82;20984;-65
2021/08/27 06:04:21;;;;;;;19.32;5.62;;;;;;;12.67;82.19;98346.78;2169751;82;21021;-65
2021/08/27 06:07:23;;;;;;;17.70;5.85;;;;;;;12.81;82.14;98350.95;2169112;82;21063;-65
2021/08/27 06:10:24;;;;;;;19.62;6.58;;;;;;;13.00;82.33;98352.52;2169626;82;20992;-65
2021/08/27 06:13:26;;;;;;;18.60;6.12;;;;;;;13.14;81.61;98352.72;2169148;82;21480;-65
2021/08/27 06:16:27;;;;;;;19.05;6.95;;;;;;;13.20;81.56;98354.53;2169172;82;21088;-65
2021/08/27 06:19:29;;;;;;;20.95;7.10;;;;;;;13.42;81.73;98362.89;2169631;81;20981;-66
2021/08/27 06:22:30;;;;;;;23.40;7.67;;;;;;;13.43;81.25;98364.12;2169816;82;21004;-65
2021/08/27 06:25:31;;;;;;;20.93;6.50;;;;;;;13.49;81.47;98372.01;2169770;82;21007;-67
2021/08/27 06:28:33;;;;;;;19.33;6.10;;;;;;;13.52;81.29;98367.80;2169924;82;21001;-65
2021/08/27 06:31:34;;;;;;;17.57;5.50;;;;;;;13.57;80.77;98365.62;2169761;82;20996;-65
2021/08/27 06:34:36;;;;;;;17.42;5.78;;;;;;;13.65;80.31;98358.43;2169833;81;21439;-65
2021/08/27 06:40:40;;;;;;;21.85;7.37;;;;;;;14.00;79.74;98357.33;2150946;82;21025;-65
2021/08/27 06:43:43;;;;;;;;;;;;;;;14.04;79.54;98367.98;2171995;82;21617;-65
2021/08/27 06:46:44;;;;;;;22.70;7.75;;;;;;;14.01;80.03;98373.02;2169252;81;20135;-66
2021/08/27 06:49:46;;;;;;;20.03;7.50;;;;;;;14.12;80.01;98368.20;2169788;82;21000;-66
2021/08/27 06:52:47;;;;;;;22.43;7.43;;;;;;;14.11;79.45;98363.05;2169724;82;20965;-65
2021/08/27 06:55:49;;;;;;;21.67;8.13;;;;;;;14.55;79.80;98358.45;2169761;82;20969;-66
2021/08/27 06:58:50;;;;;;;21.33;7.73;;;;;;;14.73;78.36;98364.84;2169794;81;21783;-65
2021/08/27 07:01:51;;;;;;;21.07;6.80;;;;;;;14.52;78.00;98360.05;2169662;82;21008;-65
2021/08/27 07:04:53;;;;;;;18.67;7.43;;;;;;;14.77;78.12;98363.25;2169759;82;21514;-65
2021/08/27 07:07:54;;;;;;;18.00;6.47;;;;;;;14.73;77.55;98371.44;2169834;82;21028;-66
2021/08/27 07:10:56;;;;;;;18.93;6.60;;;;;;;14.90;78.12;98375.78;2169608;82;21032;-65
2021/08/27 07:13:57;;;;;;;22.07;7.33;;;;;;;15.12;77.82;98372.59;2170034;81;20970;-65
2021/08/27 07:16:59;;;;;;;18.17;7.17;;;;;;;15.18;76.88;98374.20;2152638;82;20986;-65
2021/08/27 07:20:00;;;;;;;18.67;6.17;;;;;;;15.28;77.28;98375.55;2152140;83;20977;-66
2021/08/27 07:23:02;;;;;;;18.20;6.63;;;;;;;15.15;75.18;98376.28;2152156;83;20973;-65
2021/08/27 07:26:03;;;;;;;19.17;6.55;;;;;;;15.28;76.10;98374.73;2152144;83;21057;-66
2021/08/27 07:29:05;;;;;;;19.23;7.33;;;;;;;15.81;77.05;98378.91;2152122;83;21043;-65
2021/08/27 07:32:11;;;;;;;21.83;6.57;;;;;;;16.39;75.62;98382.87;2152130;82;21460;-65
2021/08/27 07:35:09;;;;;;;19.45;6.60;;;;;;;16.31;74.99;98383.23;2131544;83;21500;-66
2021/08/27 07:38:11;;;;;;;19.45;6.90;;;;;;;16.26;74.97;98389.77;2152186;83;21085;-66
2021/08/27 07:41:13;;;;;;;18.23;5.83;;;;;;;16.38;74.33;98390.95;2152181;82;21583;-66
2021/08/27 07:44:15;;;;;;;18.92;6.12;;;;;;;16.66;74.42;98386.56;2151811;83;21009;-66
2021/08/27 07:47:16;;;;;;;17.95;5.25;;;;;;;16.87;72.18;98384.23;2151772;83;21001;-66
2021/08/27 07:50:18;;;;;;;16.93;5.70;;;;;;;16.75;71.79;98385.72;2152250;83;21010;-67
2021/08/27 07:53:20;;;;;;;15.10;4.90;;;;;;;17.15;73.18;98381.12;2152093;83;21547;-66
2021/08/27 07:56:22;;;;;;;16.67;5.40;;;;;;;17.86;73.50;98380.94;2152195;83;21069;-66
2021/08/27 07:59:23;;;;;;;18.37;5.10;;;;;;;18.45;70.01;98387.13;2152177;83;21573;-66
2021/08/27 08:02:24;;;;;;;16.10;5.03;;;;;;;18.21;68.86;98383.27;2152336;83;21041;-66
2021/08/27 08:05:26;;;;;;;19.73;5.30;;;;;;;18.20;69.72;98380.27;2152110;83;21088;-66
2021/08/27 08:08:28;;;;;;;;;;;;;;;18.20;70.09;98397.52;2154594;83;21042;-66
2021/08/27 08:11:29;;;;;;;14.87;4.50;;;;;;;17.94;68.37;98393.00;2151838;83;20150;-66
2021/08/27 08:14:31;;;;;;;10.78;3.70;;;;;;;17.59;68.21;98399.06;2152752;82;21045;-67
2021/08/27 08:17:32;;;;;;;11.25;3.92;;;;;;;17.36;68.28;98400.78;2169587;82;20972;-66
2021/08/27 08:20:34;;;;;;;11.30;4.12;;;;;;;17.14;69.88;98405.48;2169218;82;21056;-66
2021/08/27 08:23:36;;;;;;;11.50;3.95;;;;;;;17.30;68.83;98405.35;2169564;82;20946;-66
2021/08/27 08:26:37;;;;;;;13.72;4.05;;;;;;;17.42;69.26;98400.68;2169572;82;21478;-66
2021/08/27 08:29:38;;;;;;;12.98;4.12;;;;;;;17.56;67.94;98408.14;2169695;82;20949;-66
2021/08/27 08:32:40;;;;;;;13.60;4.28;;;;;;;17.86;69.53;98404.81;2169390;82;21048;-66
2021/08/27 08:35:41;;;;;;;15.88;4.40;;;;;;;17.86;67.39;98403.96;2169647;82;20989;-66
2021/08/27 08:38:43;;;;;;;12.88;4.20;;;;;;;17.73;66.84;98403.85;2169560;82;20992;-66
2021/08/27 08:41:44;;;;;;;13.65;4.17;;;;;;;17.48;67.63;98402.73;2169560;82;21036;-67
2021/08/27 08:44:46;;;;;;;10.68;3.85;;;;;;;17.56;69.08;98410.79;2169520;82;21013;-66
2021/08/27 08:47:47;;;;;;;14.20;4.33;;;;;;;17.64;67.57;98406.91;2169495;82;21432;-66
2021/08/27 08:50:49;;;;;;;11.83;3.90;;;;;;;17.65;67.73;98411.21;2169221;82;21047;-66
2021/08/27 08:53:50;;;;;;;13.50;4.08;;;;;;;17.75;68.50;98416.97;2169524;82;20965;-66
2021/08/27 08:56:52;;;;;;;14.30;3.85;;;;;;;17.77;66.79;98413.66;2169649;82;20980;-66
2021/08/27 08:59:54;;;;;;;11.22;3.30;;;;;;;17.63;67.13;98415.02;2169414;82;21036;-66
2021/08/27 09:02:56;;;;;;;10.23;3.45;;;;;;;17.74;67.81;98419.27;2169545;82;20992;-66
2021/08/27 09:05:57;;;;;;;11.83;3.60;;;;;;;17.95;66.52;98423.83;2169567;82;20988;-66
2021/08/27 09:09:00;;;;;;;12.45;3.60;;;;;;;17.51;65.17;98424.97;2169522;82;20980;-66
2021/08/27 09:12:01;;;;;;;11.35;3.35;;;;;;;17.25;66.87;98431.45;2169394;82;21004;-67
2021/08/27 09:15:03;;;;;;;10.53;3.43;;;;;;;17.11;67.93;98431.42;2169729;82;21059;-67
2021/08/27 09:18:05;;;;;;;16.35;4.05;;;;;;;16.94;67.28;98429.88;2169559;82;21203;-67
2021/08/27 09:21:06;;;;;;;10.98;3.42;;;;;;;16.73;68.88;98426.05;2169668;82;21024;-67
2021/08/27 09:24:08;;;;;;;13.93;3.90;;;;;;;16.59;67.69;98426.50;2169647;82;21016;-67
2021/08/27 09:27:09;;;;;;;10.80;3.55;;;;;;;16.28;68.80;98420.06;2169509;81;20953;-66
2021/08/27 09:30:11;;;;;;;12.68;4.03;;;;;;;16.17;68.89;98421.02;2169457;82;21020;-66
2021/08/27 09:33:12;;;;;;;16.20;3.72;;;;;;;16.00;69.74;98425.19;2169498;82;21496;-66
2021/08/27 09:36:14;;;;;;;11.20;3.72;;;;;;;15.99;70.93;98421.36;2169488;82;20984;-66
2021/08/27 09:39:16;;;;;;;14.73;3.73;;;;;;;16.02;70.25;98419.75;2169617;82;21098;-66
2021/08/27 09:42:18;;;;;;;11.55;3.95;;;;;;;16.10;70.32;98418.59;2169523;82;20968;-66
2021/08/27 09:45:19;;;;;;;;;;;;;;;16.23;69.92;98416.98;2171965;82;20945;-66
2021/08/27 09:48:21;;;;;;;12.10;4.05;;;;;;;16.35;71.20;98417.20;2169510;81;20110;-68
2021/08/27 09:51:22;;;;;;;11.53;3.77;;;;;;;16.58;70.55;98424.34;2169561;82;21504;-67
2021/08/27 09:54:24;;;;;;;12.30;4.30;;;;;;;16.86;69.20;98423.60;2169429;82;20995;-67
2021/08/27 09:57:25;;;;;;;9.30;3.72;;;;;;;17.47;68.88;98415.16;2169494;82;21487;-66
2021/08/27 10:00:27;;;;;;;10.28;3.80;;;;;;;18.00;66.59;98413.61;2169691;82;20995;-67
2021/08/27 10:03:28;;;;;;;13.53;3.83;;;;;;;18.54;67.50;98414.06;2169506;82;20976;-66
2021/08/27 10:06:30;;;;;;;10.65;3.35;;;;;;;18.91;66.03;98417.00;2169588;82;20976;-67
2021/08/27 10:09:31;;;;;;;9.95;3.42;;;;;;;18.89;62.83;98414.98;2169481;82;20977;-67
2021/08/27 10:12:32;;;;;;;11.70;4.25;;;;;;;18.82;64.84;98427.19;2169444;82;21837;-67
2021/08/27 10:15:34;;;;;;;11.90;4.20;;;;;;;18.81;63.38;98421.56;2169323;82;21017;-67
2021/08/27 10:18:35;;;;;;;13.45;3.83;;;;;;;19.01;66.02;98419.05;2169478;82;20996;-67
2021/08/27 10:21:37;;;;;;;11.45;3.35;;;;;;;19.27;60.55;98427.50;2169271;82;21000;-66
2021/08/27 10:24:38;;;;;;;7.30;3.30;;;;;;;19.10;63.21;98423.09;2169459;82;21005;-66
2021/08/27 10:27:40;;;;;;;8.88;3.12;;;;;;;19.06;63.62;98428.38;2169615;81;20993;-66
2021/08/27 10:30:41;;;;;;;11.28;3.20;;;;;;;19.58;64.52;98425.61;2169507;82;20961;-66
2021/08/27 10:33:43;;;;;;;10.93;3.27;;;;;;;20.34;63.65;98419.83;2169429;82;21572;-67
2021/08/27 10:36:44;;;;;;;9.53;3.00;;;;;;;20.94;62.07;98419.95;2169479;82;21017;-67
2021/08/27 10:39:46;;;;;;;9.05;2.80;;;;;;;21.23;59.88;98419.05;2169491;82;21444;-66
2021/08/27 10:42:47;;;;;;;8.88;2.80;;;;;;;21.56;60.89;98421.10;2169498;82;20972;-68
2021/08/27 10:45:51;;;;;;;9.00;3.00;;;;;;;22.03;59.37;98414.53;2169450;82;21527;-67
2021/08/27 10:48:53;;;;;;;8.18;2.70;;;;;;;22.47;58.99;98416.05;2150032;82;21531;-67
2021/08/27 10:51:54;;;;;;;6.85;2.62;;;;;;;22.89;57.62;98415.69;2169462;82;21008;-68
2021/08/27 10:54:56;;;;;;;5.92;2.20;;;;;;;22.67;54.93;98414.22;2169317;82;21526;-67
2021/08/27 10:58:01;;;;;;;7.17;2.50;;;;;;;22.42;53.29;98418.42;2169462;82;20985;-67
2021/08/27 11:01:01;;;;;;;7.00;2.72;;;;;;;22.15;54.27;98417.94;2150494;82;20988;-67
2021/08/27 11:04:03;;;;;;;6.30;2.20;;;;;;;22.17;54.95;98413.76;2169592;82;21511;-67
2021/08/27 11:07:05;;;;;;;5.53;2.12;;;;;;;22.21;55.72;98415.07;2169445;82;20953;-67
2021/08/27 11:10:09;;;;;;;8.98;2.42;;;;;;;22.32;55.46;98411.12;2169806;82;20997;-66
2021/08/27 11:13:10;;;;;;;3.75;2.12;;;;;;;22.39;53.02;98406.77;2150689;82;21024;-67
2021/08/27 11:16:11;;;;;;;8.25;2.12;;;;;;;22.15;52.82;98401.07;2163429;82;21071;-67
2021/08/27 11:19:13;;;;;;;5.22;1.90;;;;;;;21.96;52.20;98397.04;2152164;83;21556;-67
2021/08/27 11:22:14;;;;;;;6.15;2.02;;;;;;;21.68;52.45;98403.38;2152145;83;21037;-67
2021/08/27 11:25:17;;;;;;;7.78;2.47;;;;;;;21.48;52.30;98403.79;2152089;83;21523;-67
2021/08/27 11:28:19;;;;;;;5.95;2.15;;;;;;;21.55;54.42;98400.78;2152048;83;21025;-67
2021/08/27 11:31:20;;;;;;;5.33;2.02;;;;;;;21.82;52.06;98397.80;2152264;83;21536;-67
2021/08/27 11:34:22;;;;;;;6.85;2.10;;;;;;;21.82;53.08;98399.13;2152180;82;21013;-67
2021/08/27 11:37:23;;;;;;;8.70;2.20;;;;;;;21.94;53.33;98396.40;2152083;83;21614;-67
2021/08/27 11:40:25;;;;;;;4.70;2.02;;;;;;;22.07;52.05;98393.96;2151714;83;21536;-67
2021/08/27 11:43:27;;;;;;;5.55;2.22;;;;;;;21.93;51.93;98394.73;2151926;83;21080;-67
2021/08/27 11:46:28;;;;;;;10.00;2.37;;;;;;;21.61;51.42;98403.27;2152089;83;21034;-67
2021/08/27 11:49:30;;;;;;;7.42;2.27;;;;;;;21.14;53.58;98406.24;2152324;83;21046;-66
2021/08/27 11:52:31;;;;;;;6.40;2.52;;;;;;;21.24;53.07;98405.53;2152108;83;21124;-66
2021/08/27 11:55:33;;;;;;;8.28;2.50;;;;;;;20.92;51.72;98407.81;2151980;83;21044;-67
2021/08/27 11:58:34;;;;;;;7.45;2.42;;;;;;;20.99;52.76;98399.47;2151983;83;20981;-67
2021/08/27 12:01:36;;;;;;;6.62;2.50;;;;;;;21.17;51.79;98395.23;2151993;83;21524;-66
2021/08/27 12:04:37;;;;;;;6.20;2.45;;;;;;;21.17;50.75;98402.41;2151979;83;20989;-67
2021/08/27 12:07:40;;;;;;;6.97;2.45;;;;;;;21.07;52.33;98399.94;2151987;83;20988;-68
2021/08/27 12:10:42;;;;;;;8.48;2.40;;;;;;;21.36;53.90;98400.65;2151799;83;21104;-67
2021/08/27 12:13:43;;;;;;;4.85;2.08;;;;;;;21.84;52.82;98396.62;2151935;83;21075;-67
2021/08/27 12:16:45;;;;;;;10.80;2.50;;;;;;;21.77;50.26;98401.82;2159430;82;20965;-68
2021/08/27 12:19:46;;;;;;;10.38;2.27;;;;;;;21.48;50.87;98405.12;2169543;82;21468;-67
2021/08/27 12:22:49;;;;;;;5.95;2.33;;;;;;;21.53;51.27;98401.95;2169703;81;21013;-67
2021/08/27 12:25:54;;;;;;;7.12;2.50;;;;;;;22.00;52.34;98393.02;2169360;82;21032;-67
2021/08/27 12:28:55;;;;;;;6.28;2.33;;;;;;;22.70;51.43;98390.28;2150704;82;20973;-67
2021/08/27 12:31:57;;;;;;;8.50;2.05;;;;;;;23.04;50.87;98388.94;2169679;82;21005;-67
2021/08/27 12:34:59;;;;;;;6.10;2.00;;;;;;;23.37;50.28;98388.59;2169684;82;20934;-67
2021/08/27 12:38:01;;;;;;;8.28;2.20;;;;;;;23.23;48.56;98389.77;2169478;82;21005;-68
2021/08/27 12:41:02;;;;;;;6.35;2.15;;;;;;;22.78;47.76;98391.55;2169401;82;20984;-67
2021/08/27 12:44:03;;;;;;;7.05;2.47;;;;;;;22.27;49.20;98387.63;2169700;82;21510;-68
2021/08/27 12:47:05;;;;;;;6.85;2.42;;;;;;;22.23;50.72;98388.18;2169772;82;20945;-67
2021/08/27 12:50:06;;;;;;;6.35;2.30;;;;;;;21.97;49.80;98399.53;2169647;82;21031;-67
2021/08/27 12:53:08;;;;;;;6.28;2.50;;;;;;;;;;2169671;82;21000;-67
2021/08/27 12:56:09;;;;;;;6.28;2.40;;;;;;;20.49;51.14;98397.86;2169652;82;21455;-68
2021/08/27 12:59:11;;;;;;;7.00;2.12;;;;;;;20.10;52.69;98400.67;2169794;82;20981;-67
2021/08/27 13:02:12;;;;;;;5.65;2.25;;;;;;;19.74;53.51;98398.25;2169648;82;20945;-67
2021/08/27 13:05:14;;;;;;;5.60;2.17;;;;;;;19.60;53.54;98402.36;2169554;82;21064;-67
2021/08/27 13:08:16;;;;;;;5.83;2.30;;;;;;;19.47;53.70;98398.01;2169679;82;21029;-68
2021/08/27 13:11:17;;;;;;;9.95;2.45;;;;;;;19.42;53.78;98396.31;2169502;82;21016;-69
2021/08/27 13:14:21;;;;;;;8.83;2.45;;;;;;;19.43;53.91;98396.16;2169648;82;21024;-68
2021/08/27 13:17:22;;;;;;;9.40;2.50;;;;;;;19.24;54.96;98403.89;2138779;82;21017;-67
2021/08/27 13:20:24;;;;;;;8.68;2.50;;;;;;;18.97;55.90;98407.06;2149615;82;21057;-67
2021/08/27 13:23:26;;;;;;;6.10;2.40;;;;;;;18.75;56.43;98406.23;2149229;82;21449;-67
2021/08/27 13:26:28;;;;;;;12.68;3.20;;;;;;;18.52;57.34;98408.91;2149159;82;21034;-67
2021/08/27 13:29:29;;;;;;;8.58;2.98;;;;;;;18.33;57.37;98411.73;2149304;83;20957;-69
2021/08/27 13:32:30;;;;;;;8.48;2.98;;;;;;;18.24;59.25;98410.83;2149486;82;20985;-69
2021/08/27 13:35:32;;;;;;;10.78;2.90;;;;;;;18.23;59.03;98414.97;2149339;82;20974;-67
2021/08/27 13:38:35;;;;;;;10.58;3.00;;;;;;;18.22;59.47;98412.81;2148860;83;21022;-67
2021/08/27 13:41:36;;;;;;;8.30;2.83;;;;;;;18.23;59.18;98414.48;2149380;82;21021;-69
2021/08/27 13:44:37;;;;;;;7.28;2.65;;;;;;;18.26;59.69;98414.18;2149335;82;21516;-69
2021/08/27 13:47:39;;;;;;;7.75;2.80;;;;;;;18.20;59.37;98421.41;2149373;83;20942;-68
2021/08/27 13:50:41;;;;;;;8.75;2.90;;;;;;;18.16;60.37;98419.56;2149028;83;21101;-67
2021/08/27 13:53:42;;;;;;;7.92;2.62;;;;;;;18.15;59.64;98418.39;2149315;82;21001;-67
2021/08/27 13:56:44;;;;;;;7.80;2.58;;;;;;;18.10;59.86;98423.30;2149238;82;21009;-67
2021/08/27 13:59:46;;;;;;;9.18;2.65;;;;;;;18.12;60.18;98427.48;2149478;82;20997;-67
2021/08/27 14:02:48;;;;;;;4.08;2.17;;;;;;;18.20;60.01;98433.85;2149056;83;21062;-68
2021/08/27 14:05:49;;;;;;;8.83;2.90;;;;;;;18.12;59.38;98431.46;2149773;83;20954;-67
2021/08/27 14:08:51;;;;;;;7.42;2.70;;;;;;;18.26;59.60;98431.91;2149577;83;20990;-70
2021/08/27 14:11:52;;;;;;;8.50;2.90;;;;;;;18.50;59.51;98431.28;2149543;82;21527;-69